Time;durP1;ratioP1;P1;durP2;ratioP2;P2;SDS_P1;SDS_P2;PMS_P1;PMS_P2;Temp;Humidity;BMP_temperature;BMP_pressure;BME280_temperature;BME280_humidity;BME280_pressure;Samples;Min_cycle;Max_cycle;Signal;HPM_P1;HPM_P2
2022/05/15 00:02:41;;;;;;;8.93;5.77;;;16.10;73.40;;;;;;6173197;23;20387;-87
2022/05/15 00:05:08;;;;;;;7.03;6.33;;;16.20;73.80;;;;;;6174813;23;20387;-87
2022/05/15 00:07:35;;;;;;;8.50;7.70;;;16.10;73.80;;;;;;6181261;23;20417;-87
2022/05/15 00:10:04;;;;;;;10.33;6.80;;;16.10;74.50;;;;;;6175956;23;20417;-87
2022/05/15 00:12:31;;;;;;;7.40;6.40;;;16.00;74.90;;;;;;6162361;23;20555;-88
2022/05/15 00:14:57;;;;;;;6.53;5.83;;;16.00;75.40;;;;;;6157773;23;20395;-88
2022/05/15 00:17:24;;;;;;;8.10;5.97;;;16.00;75.40;;;;;;6158079;23;20900;-88
2022/05/15 00:19:51;;;;;;;6.30;5.57;;;15.90;75.80;;;;;;6157057;23;20411;-88
2022/05/15 00:22:18;;;;;;;10.90;6.87;;;15.90;76.70;;;;;;6158777;23;20411;-87
2022/05/15 00:24:45;;;;;;;7.97;5.87;;;15.80;77.40;;;;;;6167206;23;20470;-86
2022/05/15 00:27:13;;;;;;;6.47;5.33;;;15.80;77.90;;;;;;6168846;23;20450;-87
2022/05/15 00:29:40;;;;;;;7.30;6.60;;;15.80;78.40;;;;;;6159099;23;20407;-88
2022/05/15 00:32:07;;;;;;;7.30;5.87;;;15.70;78.90;;;;;;6158793;23;20450;-88
2022/05/15 00:34:34;;;;;;;8.20;6.07;;;15.60;79.70;;;;;;6158363;23;20916;-88
2022/05/15 00:37:01;;;;;;;6.57;4.70;;;15.60;80.50;;;;;;6159371;23;20427;-88
2022/05/15 00:39:28;;;;;;;7.13;5.47;;;15.50;80.50;;;;;;6176581;23;20426;-88
2022/05/15 00:41:54;;;;;;;9.53;6.30;;;15.50;81.00;;;;;;6180053;23;20410;-88
2022/05/15 00:44:23;;;;;;;6.30;5.67;;;15.50;81.50;;;;;;6160139;23;20885;-88
2022/05/15 00:46:50;;;;;;;6.33;5.43;;;15.50;81.80;;;;;;6158589;23;20439;-88
2022/05/15 00:49:17;;;;;;;8.00;5.50;;;15.40;82.10;;;;;;6159694;23;20438;-88
2022/05/15 00:51:49;;;;;;;11.30;6.20;;;15.50;82.50;;;;;;6158677;23;20414;-87
2022/05/15 00:54:20;;;;;;;7.47;5.10;;;15.40;83.10;;;;;;6166970;23;20448;-87
2022/05/15 00:56:54;;;;;;;7.03;4.60;;;15.40;82.90;;;;;;6167829;23;20459;-87
2022/05/15 00:59:25;;;;;;;7.30;5.30;;;15.40;82.70;;;;;;6158865;23;20423;-88
2022/05/15 01:01:52;;;;;;;8.40;5.83;;;15.30;82.80;;;;;;6157947;23;20382;-87
2022/05/15 01:04:19;;;;;;;6.70;5.77;;;15.10;83.50;;;;;;6157923;23;20549;-88
2022/05/15 01:06:46;;;;;;;9.00;5.80;;;15.10;83.60;;;;;;6156826;23;20421;-88
2022/05/15 01:09:14;;;;;;;7.37;5.83;;;15.00;83.90;;;;;;6156133;23;20509;-88
2022/05/15 01:11:43;;;;;;;10.30;5.50;;;14.90;83.50;;;;;;6157053;23;20411;-88
2022/05/15 01:14:13;;;;;;;5.57;5.07;;;14.90;84.80;;;;;;6157583;23;20442;-88
2022/05/15 01:16:42;;;;;;;6.10;5.27;;;14.90;85.70;;;;;;6180179;23;20446;-88
2022/05/15 01:19:09;;;;;;;6.37;5.43;;;14.80;85.20;;;;;;6183773;23;20414;-88
2022/05/15 01:21:40;;;;;;;9.73;5.37;;;14.70;85.20;;;;;;6183764;23;20388;-88
2022/05/15 01:24:09;;;;;;;7.10;6.10;;;14.80;85.60;;;;;;6165796;23;20461;-88
2022/05/15 01:26:38;;;;;;;6.23;5.20;;;14.70;86.20;;;;;;6161166;23;20414;-88
2022/05/15 01:29:07;;;;;;;8.20;6.30;;;14.70;86.70;;;;;;6161225;23;20426;-88
2022/05/15 01:31:36;;;;;;;9.30;5.13;;;14.60;87.50;;;;;;6158352;23;20406;-88
2022/05/15 01:34:06;;;;;;;16.00;6.23;;;14.50;88.30;;;;;;6166951;23;20866;-88
2022/05/15 01:36:33;;;;;;;6.20;5.50;;;14.50;89.10;;;;;;6163784;23;20394;-88
2022/05/15 01:39:02;;;;;;;5.27;4.77;;;14.40;89.50;;;;;;6161105;23;20767;-88
2022/05/15 01:41:28;;;;;;;6.43;5.20;;;14.40;89.90;;;;;;6158391;23;20814;-88
2022/05/15 01:43:55;;;;;;;6.43;5.80;;;14.40;90.00;;;;;;6158933;23;20406;-88
2022/05/15 01:46:24;;;;;;;6.07;5.47;;;14.30;90.50;;;;;;6156464;23;20403;-88
2022/05/15 01:48:51;;;;;;;5.90;5.30;;;14.30;90.70;;;;;;6156625;23;20482;-88
2022/05/15 01:51:18;;;;;;;8.43;5.73;;;14.30;90.90;;;;;;6155997;23;20750;-88
2022/05/15 01:53:45;;;;;;;8.23;5.80;;;14.20;91.00;;;;;;6156358;23;20962;-87
2022/05/15 01:56:13;;;;;;;6.17;5.50;;;14.10;91.20;;;;;;6155491;23;20470;-88
2022/05/15 01:58:40;;;;;;;7.83;6.07;;;14.00;91.70;;;;;;6157907;23;20430;-88
2022/05/15 02:01:08;;;;;;;6.23;5.73;;;14.10;92.10;;;;;;6172841;23;20400;-87
2022/05/15 02:03:35;;;;;;;6.53;5.67;;;14.10;91.90;;;;;;6169033;23;20393;-88
2022/05/15 02:06:02;;;;;;;6.87;5.60;;;14.10;91.70;;;;;;6159605;23;20413;-87
2022/05/15 02:08:31;;;;;;;5.77;5.13;;;14.10;91.80;;;;;;6159321;23;20443;-88
2022/05/15 02:10:57;;;;;;;7.83;5.43;;;14.10;91.70;;;;;;6161151;23;20480;-88
2022/05/15 02:13:25;;;;;;;6.00;5.40;;;14.10;91.90;;;;;;6162971;23;20437;-88
2022/05/15 02:15:52;;;;;;;7.30;5.10;;;14.10;92.30;;;;;;6166354;23;20434;-88
2022/05/15 02:18:19;;;;;;;7.20;5.20;;;14.10;92.50;;;;;;6172199;23;20836;-88
2022/05/15 02:20:46;;;;;;;8.07;5.53;;;14.10;92.60;;;;;;6162852;23;20407;-87
2022/05/15 02:23:12;;;;;;;7.37;5.37;;;14.10;92.90;;;;;;6171324;23;20478;-88
2022/05/15 02:25:40;;;;;;;7.93;5.10;;;14.00;92.40;;;;;;6173956;23;20428;-88
2022/05/15 02:28:07;;;;;;;8.10;5.30;;;14.00;92.60;;;;;;6176001;23;20449;-88
2022/05/15 02:30:36;;;;;;;6.00;5.37;;;14.00;93.00;;;;;;6177132;23;20401;-88
2022/05/15 02:33:02;;;;;;;5.37;4.80;;;14.00;93.00;;;;;;6180236;23;20445;-87
2022/05/15 02:35:29;;;;;;;6.00;5.30;;;14.00;93.00;;;;;;6174208;23;20403;-88
2022/05/15 02:37:56;;;;;;;6.33;5.83;;;13.90;93.00;;;;;;6159883;23;20430;-88
2022/05/15 02:40:24;;;;;;;7.90;5.83;;;13.90;93.30;;;;;;6169524;23;20610;-88
2022/05/15 02:42:53;;;;;;;8.90;5.27;;;13.90;93.40;;;;;;6161990;23;20763;-88
2022/05/15 02:45:19;;;;;;;8.60;5.07;;;13.90;93.70;;;;;;6158886;23;20419;-88
2022/05/15 02:47:47;;;;;;;6.90;5.73;;;13.80;93.90;;;;;;6158154;23;20446;-89
2022/05/15 02:53:00;;;;;;;5.47;4.97;;;13.80;94.00;;;;;;6162517;23;20586;-88
2022/05/15 02:55:27;;;;;;;6.50;5.13;;;13.90;94.10;;;;;;6161625;23;20418;-88
2022/05/15 02:57:54;;;;;;;9.37;6.10;;;13.90;94.20;;;;;;6166401;23;20443;-88
2022/05/15 03:00:23;;;;;;;6.70;6.00;;;13.80;94.30;;;;;;6160766;23;20876;-88
2022/05/15 03:02:51;;;;;;;5.73;5.13;;;13.80;94.50;;;;;;6155527;23;20416;-88
2022/05/15 03:05:19;;;;;;;8.77;4.83;;;13.80;94.80;;;;;;6154924;23;20407;-88
2022/05/15 03:07:47;;;;;;;6.70;4.97;;;13.70;95.00;;;;;;6155456;23;20450;-88
2022/05/15 03:10:16;;;;;;;6.00;5.17;;;13.70;95.50;;;;;;6154904;23;20411;-88
2022/05/15 03:12:44;;;;;;;7.30;5.90;;;13.70;95.60;;;;;;6154876;23;20450;-88
2022/05/15 03:15:14;;;;;;;7.03;5.20;;;13.60;95.90;;;;;;6161521;23;20427;-87
2022/05/15 03:17:42;;;;;;;5.70;5.20;;;13.60;96.20;;;;;;6181978;23;20432;-87
2022/05/15 03:20:12;;;;;;;6.53;5.93;;;13.50;96.60;;;;;;6182148;23;20401;-87
2022/05/15 03:22:38;;;;;;;5.57;5.10;;;13.60;96.90;;;;;;6178577;23;20401;-88
2022/05/15 03:25:06;;;;;;;8.10;5.63;;;13.50;96.90;;;;;;6157410;23;20860;-88
2022/05/15 03:27:33;;;;;;;5.83;5.20;;;13.50;97.10;;;;;;6155348;23;20744;-88
2022/05/15 03:30:00;;;;;;;6.00;4.93;;;13.40;97.20;;;;;;6155291;23;20416;-87
2022/05/15 03:32:26;;;;;;;11.97;5.50;;;13.40;97.40;;;;;;6155313;23;20485;-88
2022/05/15 03:34:53;;;;;;;6.10;5.10;;;13.40;97.70;;;;;;6154727;23;20440;-88
2022/05/15 03:37:21;;;;;;;6.93;5.40;;;13.40;97.80;;;;;;6158061;23;20448;-88
2022/05/15 03:39:48;;;;;;;6.30;5.10;;;13.40;97.70;;;;;;6161109;23;20415;-88
2022/05/15 03:42:14;;;;;;;6.87;5.60;;;13.30;97.60;;;;;;6154653;23;20895;-88
2022/05/15 03:44:41;;;;;;;8.03;5.20;;;13.40;98.40;;;;;;6155301;23;20418;-88
2022/05/15 03:47:08;;;;;;;6.63;5.40;;;13.30;98.30;;;;;;6155078;23;20888;-88
2022/05/15 03:49:35;;;;;;;6.80;5.33;;;13.30;99.00;;;;;;6164525;23;20420;-88
2022/05/15 03:52:03;;;;;;;6.37;5.57;;;13.30;98.90;;;;;;6172487;23;20409;-89
2022/05/15 03:54:31;;;;;;;7.43;5.40;;;13.30;98.90;;;;;;6178012;23;20469;-89
2022/05/15 03:56:58;;;;;;;5.63;5.00;;;13.30;99.10;;;;;;6175726;23;20383;-88
2022/05/15 03:59:28;;;;;;;6.40;5.60;;;13.30;99.20;;;;;;6182740;23;20451;-88
2022/05/15 04:01:55;;;;;;;7.27;5.10;;;13.30;99.20;;;;;;6167431;23;20407;-88
2022/05/15 04:04:22;;;;;;;7.03;5.20;;;13.30;99.20;;;;;;6163193;23;20410;-88
2022/05/15 04:06:48;;;;;;;5.83;5.20;;;13.30;99.60;;;;;;6160577;23;20408;-89
2022/05/15 04:09:15;;;;;;;6.47;5.80;;;13.30;99.50;;;;;;6159396;23;20514;-88
2022/05/15 04:11:43;;;;;;;7.07;5.80;;;13.30;99.40;;;;;;6168719;23;20410;-88
2022/05/15 04:14:11;;;;;;;5.70;5.20;;;13.30;99.50;;;;;;6171316;23;20478;-88
2022/05/15 04:16:38;;;;;;;6.67;5.30;;;13.30;99.80;;;;;;6159319;23;20430;-88
2022/05/15 04:19:06;;;;;;;9.60;5.40;;;13.30;99.90;;;;;;6158304;23;20513;-88
2022/05/15 04:21:37;;;;;;;5.57;5.07;;;13.30;99.80;;;;;;6159277;23;20408;-88
2022/05/15 04:24:05;;;;;;;7.57;4.80;;;13.30;99.90;;;;;;6158977;23;20953;-88
2022/05/15 04:26:32;;;;;;;8.73;5.63;;;13.30;99.90;;;;;;6158524;23;20431;-88
2022/05/15 04:29:01;;;;;;;6.13;5.13;;;13.30;99.70;;;;;;6160487;23;20551;-88
2022/05/15 04:31:28;;;;;;;5.93;5.43;;;13.20;99.90;;;;;;6161989;23;20402;-88
2022/05/15 04:33:55;;;;;;;9.53;5.23;;;13.20;99.80;;;;;;6163440;23;20517;-89
2022/05/15 04:36:22;;;;;;;7.70;6.23;;;13.20;99.90;;;;;;6175056;23;20444;-89
2022/05/15 04:38:49;;;;;;;5.20;4.50;;;13.20;99.90;;;;;;6161131;23;20428;-90
2022/05/15 04:41:16;;;;;;;8.33;5.77;;;13.30;99.90;;;;;;6160344;23;20916;-89
2022/05/15 04:43:43;;;;;;;5.50;5.00;;;13.40;99.70;;;;;;6161198;23;20490;-89
2022/05/15 04:46:11;;;;;;;8.60;4.80;;;13.40;99.40;;;;;;6159071;23;20442;-89
2022/05/15 04:48:38;;;;;;;7.37;4.60;;;13.40;99.50;;;;;;6158812;23;20922;-89
2022/05/15 04:51:05;;;;;;;4.90;4.40;;;13.50;99.60;;;;;;6159476;23;20496;-89
2022/05/15 04:53:32;;;;;;;5.53;4.60;;;13.50;99.30;;;;;;6160646;23;20451;-90
2022/05/15 04:56:00;;;;;;;7.00;5.70;;;13.60;99.00;;;;;;6158605;23;20409;-89
2022/05/15 04:58:27;;;;;;;10.40;5.80;;;13.70;98.90;;;;;;6170439;23;20407;-89
2022/05/15 05:00:54;;;;;;;7.60;4.90;;;13.70;98.30;;;;;;6184509;23;20457;-90
2022/05/15 05:03:22;;;;;;;5.13;4.63;;;13.80;98.30;;;;;;6171165;23;20440;-89
2022/05/15 05:05:49;;;;;;;5.53;5.03;;;14.10;98.40;;;;;;6168857;23;20417;-89
2022/05/15 05:08:16;;;;;;;7.03;6.33;;;14.60;97.40;;;;;;6182638;23;20430;-90
2022/05/15 05:10:43;;;;;;;5.50;5.00;;;15.20;96.30;;;;;;6185251;23;20391;-91
2022/05/15 05:13:10;;;;;;;7.03;5.87;;;15.60;94.90;;;;;;6184424;23;20402;-89
2022/05/15 05:15:37;;;;;;;6.97;4.60;;;16.00;93.70;;;;;;6180917;23;20450;-90
2022/05/15 05:18:04;;;;;;;6.83;5.50;;;16.40;92.90;;;;;;6179601;23;20427;-89
2022/05/15 05:20:32;;;;;;;6.80;5.33;;;16.60;92.00;;;;;;6170956;23;20415;-90
2022/05/15 05:22:59;;;;;;;7.80;5.03;;;16.60;91.50;;;;;;6163487;23;20410;-90
2022/05/15 05:25:26;;;;;;;7.83;5.23;;;17.00;91.10;;;;;;6160965;23;20438;-89
2022/05/15 05:27:53;;;;;;;6.87;6.17;;;17.20;90.60;;;;;;6159774;23;20442;-89
2022/05/15 05:30:22;;;;;;;5.53;4.60;;;17.80;89.50;;;;;;6158876;23;20419;-91
2022/05/15 05:32:50;;;;;;;10.10;5.83;;;18.20;86.00;;;;;;6158714;23;20408;-91
2022/05/15 05:35:19;;;;;;;6.03;5.20;;;18.60;83.90;;;;;;6157567;23;20989;-90
2022/05/15 05:37:47;;;;;;;7.30;4.97;;;19.00;82.00;;;;;;6158415;23;20420;-90
2022/05/15 05:40:14;;;;;;;7.37;5.20;;;19.50;79.80;;;;;;6161087;23;20410;-90
2022/05/15 05:42:41;;;;;;;5.00;4.50;;;19.70;78.10;;;;;;6183141;23;20471;-90
2022/05/15 05:45:09;;;;;;;4.77;4.37;;;20.00;75.80;;;;;;6168463;23;20813;-90
2022/05/15 05:47:37;;;;;;;5.67;4.50;;;20.20;73.90;;;;;;6162228;23;20424;-88
2022/05/15 05:50:08;;;;;;;5.30;4.40;;;20.80;73.20;;;;;;6169600;23;20475;-88
2022/05/15 05:52:36;;;;;;;5.43;4.27;;;20.60;71.50;;;;;;6170931;23;20404;-87
2022/05/15 05:55:05;;;;;;;5.07;4.60;;;20.90;70.60;;;;;;6172418;23;20526;-88
2022/05/15 05:57:33;;;;;;;6.83;4.73;;;20.50;69.30;;;;;;6171411;23;20403;-87
2022/05/15 06:00:02;;;;;;;4.93;4.53;;;20.50;69.50;;;;;;6171787;23;20412;-87
2022/05/15 06:02:41;;;;;;;5.50;4.73;;;20.90;68.10;;;;;;6173897;23;20409;-87
2022/05/15 06:05:17;;;;;;;6.73;4.83;;;21.30;67.70;;;;;;6169849;23;20393;-87
2022/05/15 06:08:00;;;;;;;;;;;;;;;;;;;;;
2022/05/15 06:10:31;;;;;;;6.97;6.23;;;22.30;65.30;;;;;;6168398;23;20442;-87
2022/05/15 06:12:58;;;;;;;4.87;4.33;;;22.30;62.80;;;;;;6168935;23;20866;-87
2022/05/15 06:15:26;;;;;;;6.70;4.80;;;22.20;62.60;;;;;;6168689;23;20676;-87
2022/05/15 06:17:55;;;;;;;5.97;4.07;;;22.20;63.20;;;;;;6167689;23;20426;-87
2022/05/15 06:20:35;;;;;;;6.20;4.20;;;22.60;62.80;;;;;;6168303;23;20473;-87
2022/05/15 06:23:02;;;;;;;6.53;4.40;;;22.50;61.30;;;;;;6167375;23;20398;-85
2022/05/15 06:25:30;;;;;;;4.97;3.93;;;22.80;60.10;;;;;;6167097;23;20408;-85
2022/05/15 06:27:57;;;;;;;5.83;4.17;;;22.30;61.80;;;;;;6165866;23;20434;-86
2022/05/15 06:30:44;;;;;;;7.30;4.50;;;22.80;61.60;;;;;;6165178;23;20406;-85
2022/05/15 06:33:11;;;;;;;5.00;4.47;;;23.40;59.50;;;;;;6161577;23;20407;-85
2022/05/15 06:39:15;;;;;;;4.70;4.17;;;24.30;58.30;;;;;;6148554;23;20446;-85
2022/05/15 06:41:43;;;;;;;4.87;4.40;;;25.00;56.10;;;;;;6177688;23;20408;-86
2022/05/15 06:44:10;;;;;;;4.03;3.63;;;25.20;54.80;;;;;;6160295;23;20482;-85
2022/05/15 06:46:36;;;;;;;7.17;3.40;;;25.40;54.40;;;;;;6158067;23;20492;-86
2022/05/15 06:49:03;;;;;;;5.30;3.63;;;26.00;52.40;;;;;;6157387;23;20428;-86
2022/05/15 06:51:30;;;;;;;5.23;3.80;;;26.30;51.70;;;;;;6156794;23;20486;-86
2022/05/15 06:53:57;;;;;;;5.27;3.70;;;26.70;51.00;;;;;;6155204;23;20410;-86
2022/05/15 06:59:10;;;;;;;6.50;3.87;;;27.40;49.80;;;;;;6156934;23;20409;-85
2022/05/15 07:01:36;;;;;;;5.23;3.30;;;27.60;48.80;;;;;;6157140;23;20409;-86
2022/05/15 07:04:03;;;;;;;7.27;4.23;;;27.70;48.10;;;;;;6155987;23;20442;-85
2022/05/15 07:06:31;;;;;;;4.50;4.00;;;28.10;48.20;;;;;;6157336;23;20406;-85
2022/05/15 07:08:58;;;;;;;3.83;3.53;;;28.50;47.60;;;;;;6156866;23;21013;-85
2022/05/15 07:11:24;;;;;;;5.67;3.43;;;28.30;47.40;;;;;;6157079;23;20399;-86
2022/05/15 07:13:51;;;;;;;4.70;3.70;;;27.70;47.10;;;;;;6158608;23;20406;-86
2022/05/15 07:16:19;;;;;;;7.70;3.53;;;26.90;48.00;;;;;;6163448;23;20406;-86
2022/05/15 07:18:46;;;;;;;5.00;3.90;;;26.80;48.70;;;;;;6157308;23;20421;-86
2022/05/15 07:21:13;;;;;;;3.27;2.97;;;27.30;48.80;;;;;;6157415;23;20413;-85
2022/05/15 07:23:41;;;;;;;4.07;3.23;;;27.50;48.10;;;;;;6164593;23;20412;-86
2022/05/15 07:26:09;;;;;;;5.13;3.70;;;28.20;47.90;;;;;;6155543;23;20399;-86
2022/05/15 07:28:35;;;;;;;6.60;4.20;;;29.00;47.00;;;;;;6169169;23;20439;-85
2022/05/15 07:31:02;;;;;;;7.33;3.70;;;29.80;45.80;;;;;;6182039;23;20395;-84
2022/05/15 07:33:30;;;;;;;4.57;3.33;;;30.20;44.90;;;;;;6175014;23;20409;-85
2022/05/15 07:35:57;;;;;;;7.67;4.97;;;30.80;43.60;;;;;;6170838;23;20431;-85
2022/05/15 07:38:25;;;;;;;6.67;3.83;;;31.00;43.40;;;;;;6173984;23;20489;-85
2022/05/15 07:40:52;;;;;;;4.93;4.10;;;30.90;43.40;;;;;;6166043;23;20398;-86
2022/05/15 07:43:20;;;;;;;4.43;3.50;;;30.60;42.60;;;;;;6173690;23;20411;-85
2022/05/15 07:45:47;;;;;;;5.27;4.27;;;29.80;43.40;;;;;;6172878;23;20407;-86
2022/05/15 07:48:15;;;;;;;4.67;4.23;;;30.30;44.20;;;;;;6160001;23;20438;-85
2022/05/15 07:50:48;;;;;;;4.40;3.67;;;30.70;43.40;;;;;;6157847;23;20411;-87
2022/05/15 07:53:14;;;;;;;5.30;4.53;;;31.60;42.60;;;;;;6157563;23;20396;-86
2022/05/15 07:55:41;;;;;;;3.23;2.90;;;31.60;41.00;;;;;;6163237;23;20469;-85
2022/05/15 07:58:08;;;;;;;3.77;3.10;;;31.30;42.30;;;;;;6174607;23;20434;-86
2022/05/15 08:00:36;;;;;;;4.73;3.30;;;31.60;42.20;;;;;;6175651;23;20431;-85
2022/05/15 08:03:07;;;;;;;5.13;3.40;;;31.90;41.70;;;;;;6179094;23;20399;-85
2022/05/15 08:08:21;;;;;;;4.97;2.80;;;33.00;40.60;;;;;;6157464;23;20409;-86
2022/05/15 08:10:49;;;;;;;3.90;3.10;;;33.40;39.50;;;;;;6155022;23;20406;-86
2022/05/15 08:13:25;;;;;;;6.00;2.87;;;33.60;39.10;;;;;;6155252;23;20402;-86
2022/05/15 08:15:53;;;;;;;4.00;3.17;;;33.20;39.40;;;;;;6154433;23;20441;-86
2022/05/15 08:23:53;;;;;;;3.77;2.90;;;33.30;39.30;;;;;;6155402;23;20421;-86
2022/05/15 08:26:20;;;;;;;3.50;2.10;;;34.90;38.80;;;;;;6153506;23;20395;-86
2022/05/15 08:28:49;;;;;;;2.87;2.57;;;35.40;37.10;;;;;;6153939;23;20742;-86
2022/05/15 08:31:17;;;;;;;4.50;2.70;;;35.00;35.40;;;;;;6154337;23;20406;-87
2022/05/15 08:33:44;;;;;;;4.23;2.20;;;34.00;37.20;;;;;;6153846;23;20505;-86
2022/05/15 08:36:11;;;;;;;4.03;2.30;;;32.90;38.40;;;;;;6154124;23;20434;-86
2022/05/15 08:38:40;;;;;;;8.23;4.70;;;32.40;38.70;;;;;;6155655;23;20427;-86
2022/05/15 08:41:23;;;;;;;4.63;2.67;;;32.00;39.80;;;;;;6154780;23;20411;-85
2022/05/15 08:43:59;;;;;;;3.70;2.53;;;33.00;38.90;;;;;;6156242;23;20386;-86
2022/05/15 08:46:38;;;;;;;4.10;2.80;;;32.70;39.00;;;;;;6156798;23;20386;-85
2022/05/15 08:49:11;;;;;;;3.70;2.70;;;32.90;38.40;;;;;;6157035;23;20438;-86
2022/05/15 08:51:43;;;;;;;3.00;2.13;;;33.50;38.20;;;;;;6170973;23;20454;-86
2022/05/15 08:54:16;;;;;;;8.10;3.00;;;34.30;37.00;;;;;;6171419;23;20442;-91
2022/05/15 09:14:57;;;;;;;2.63;2.17;;;36.00;33.60;;;;;;5842200;24;20418;-90
2022/05/15 09:17:35;;;;;;;4.63;2.50;;;35.90;34.10;;;;;;5961674;23;20429;-89
2022/05/15 09:20:12;;;;;;;3.20;2.80;;;36.90;34.20;;;;;;6061047;23;20420;-88
2022/05/15 09:22:50;;;;;;;2.50;2.07;;;36.40;33.30;;;;;;6108193;23;20412;-89
2022/05/15 09:25:58;;;;;;;5.70;2.40;;;36.80;33.00;;;;;;6099186;23;20416;-89
2022/05/15 09:29:14;;;;;;;3.40;2.60;;;36.00;33.30;;;;;;6099407;23;20468;-89
2022/05/15 09:31:43;;;;;;;5.70;2.63;;;35.50;34.20;;;;;;6148218;23;20434;-86
2022/05/15 09:34:23;;;;;;;4.83;2.30;;;35.50;34.10;;;;;;6182408;23;20387;-86
2022/05/15 09:36:51;;;;;;;2.43;2.20;;;36.40;33.40;;;;;;6169530;23;20435;-87
2022/05/15 09:39:24;;;;;;;4.20;2.43;;;37.40;32.00;;;;;;6160788;23;20454;-86
2022/05/15 09:44:45;;;;;;;4.73;1.97;;;38.30;31.60;;;;;;6161595;23;20426;-86
2022/05/15 09:47:24;;;;;;;5.00;2.40;;;39.30;29.90;;;;;;6158626;23;20407;-87
2022/05/15 09:49:51;;;;;;;2.70;2.20;;;39.20;29.90;;;;;;6157993;23;20391;-87
2022/05/15 09:52:24;;;;;;;4.23;2.60;;;39.50;29.90;;;;;;6157039;23;20413;-87
2022/05/15 09:54:51;;;;;;;4.13;2.60;;;39.70;30.00;;;;;;6157710;23;20462;-87
2022/05/15 09:57:22;;;;;;;5.33;2.40;;;39.40;29.30;;;;;;6159170;23;20403;-86
2022/05/15 09:59:58;;;;;;;3.27;2.40;;;39.10;29.70;;;;;;6161048;23;20406;-86
2022/05/15 10:02:35;;;;;;;4.10;1.90;;;38.20;29.50;;;;;;6160867;23;20387;-86
2022/05/15 10:05:02;;;;;;;3.40;2.10;;;37.70;30.40;;;;;;6162314;23;20426;-86
2022/05/15 10:07:32;;;;;;;2.33;2.00;;;38.60;30.00;;;;;;6164227;23;20485;-87
2022/05/15 10:10:15;;;;;;;6.20;2.40;;;39.40;29.10;;;;;;6162911;23;20395;-87
2022/05/15 10:12:44;;;;;;;3.70;2.30;;;37.70;30.30;;;;;;6165582;23;20858;-87
2022/05/15 10:15:12;;;;;;;4.93;2.80;;;37.40;30.80;;;;;;6159435;23;20465;-86
2022/05/15 10:17:48;;;;;;;3.47;2.50;;;36.80;31.30;;;;;;6161291;23;20829;-86
2022/05/15 10:20:21;;;;;;;3.23;2.30;;;37.30;31.70;;;;;;6177824;23;20624;-86
2022/05/15 10:22:53;;;;;;;2.77;2.23;;;38.20;30.80;;;;;;6179107;23;20395;-87
2022/05/15 10:25:24;;;;;;;4.00;2.20;;;37.10;31.60;;;;;;6167476;23;20414;-87
2022/05/15 10:27:55;;;;;;;3.27;2.10;;;36.90;32.40;;;;;;6180085;23;20454;-86
2022/05/15 10:30:30;;;;;;;4.33;2.43;;;36.40;32.70;;;;;;6163318;23;20387;-86
2022/05/15 10:33:05;;;;;;;3.70;2.40;;;37.00;32.00;;;;;;6160304;23;20391;-86
2022/05/15 10:35:47;;;;;;;3.47;2.10;;;35.60;33.20;;;;;;6159623;23;20529;-87
2022/05/15 10:38:27;;;;;;;5.30;2.20;;;35.80;33.40;;;;;;6157290;23;20434;-86
2022/05/15 10:40:59;;;;;;;3.67;2.43;;;36.40;33.70;;;;;;6160616;23;20716;-86
2022/05/15 10:43:38;;;;;;;5.90;2.50;;;37.30;32.00;;;;;;6159868;23;20387;-86
2022/05/15 10:46:12;;;;;;;4.50;2.47;;;37.90;31.10;;;;;;6160330;23;20410;-86
2022/05/15 10:48:51;;;;;;;2.93;1.80;;;38.80;30.70;;;;;;6176402;23;20437;-87
2022/05/15 10:51:22;;;;;;;3.13;2.37;;;37.10;31.80;;;;;;6159577;23;20390;-87
2022/05/15 10:57:24;;;;;;;2.77;2.10;;;36.90;31.60;;;;;;6160043;23;20458;-87
2022/05/15 10:59:56;;;;;;;2.83;1.90;;;37.80;31.80;;;;;;6159850;23;20483;-87
2022/05/15 11:02:50;;;;;;;2.57;2.00;;;38.70;30.10;;;;;;6164544;23;20387;-87
2022/05/15 11:05:24;;;;;;;2.63;2.10;;;38.70;29.70;;;;;;6137091;23;20398;-87
2022/05/15 11:07:58;;;;;;;4.10;2.20;;;37.80;30.50;;;;;;6158663;23;20410;-87
2022/05/15 11:10:31;;;;;;;2.73;1.93;;;38.00;31.60;;;;;;6156341;23;20792;-86
2022/05/15 11:13:09;;;;;;;2.47;2.23;;;38.00;30.90;;;;;;6156115;23;20706;-87
2022/05/15 11:15:47;;;;;;;2.63;2.43;;;38.40;29.90;;;;;;6156367;23;20799;-87
2022/05/15 11:18:26;;;;;;;3.10;2.13;;;38.50;30.70;;;;;;6156199;23;20434;-87
2022/05/15 11:21:01;;;;;;;2.67;1.80;;;39.50;29.90;;;;;;6156088;23;20402;-87
2022/05/15 11:23:33;;;;;;;3.40;2.13;;;39.00;30.00;;;;;;6162795;23;20386;-87
2022/05/15 11:26:05;;;;;;;4.20;2.20;;;39.60;29.30;;;;;;6179556;23;20368;-87
2022/05/15 11:28:37;;;;;;;2.97;2.00;;;41.30;28.90;;;;;;6157175;23;20430;-87
2022/05/15 11:31:09;;;;;;;6.03;2.30;;;41.10;28.20;;;;;;6155347;23;20418;-87
2022/05/15 11:33:50;;;;;;;3.87;2.20;;;39.70;28.80;;;;;;6158129;23;20399;-87
2022/05/15 11:36:35;;;;;;;3.73;1.90;;;40.10;28.60;;;;;;6165355;23;20427;-87
2022/05/15 11:39:06;;;;;;;2.97;2.40;;;40.00;29.20;;;;;;6157875;23;20461;-87
2022/05/15 11:42:14;;;;;;;4.83;2.50;;;39.30;29.00;;;;;;6158809;23;20421;-87
2022/05/15 11:44:44;;;;;;;2.27;2.07;;;39.50;29.30;;;;;;6156843;23;20821;-87
2022/05/15 11:47:26;;;;;;;3.37;2.30;;;39.30;28.90;;;;;;6156376;23;20442;-87
2022/05/15 11:50:06;;;;;;;2.60;2.40;;;39.20;28.90;;;;;;6155944;23;20387;-87
2022/05/15 11:52:40;;;;;;;3.00;2.20;;;39.30;29.20;;;;;;6155993;23;20427;-87
2022/05/15 11:55:43;;;;;;;2.70;2.40;;;39.40;29.00;;;;;;6155268;23;20718;-87
2022/05/15 11:58:33;;;;;;;4.43;2.53;;;38.50;29.60;;;;;;6155936;23;20430;-87
2022/05/15 12:01:04;;;;;;;4.27;2.07;;;39.10;29.10;;;;;;6160223;23;20403;-87
2022/05/15 12:03:48;;;;;;;4.33;2.10;;;39.50;28.60;;;;;;6156057;23;20465;-86
2022/05/15 12:06:18;;;;;;;5.60;2.07;;;40.60;28.70;;;;;;6155459;23;20945;-87
2022/05/15 12:08:52;;;;;;;3.10;2.27;;;41.20;28.10;;;;;;6155058;23;20489;-87
2022/05/15 12:11:32;;;;;;;2.50;2.00;;;39.00;27.90;;;;;;6155669;23;20399;-87
2022/05/15 12:14:25;;;;;;;2.53;2.13;;;39.60;28.40;;;;;;6156200;23;20666;-87
2022/05/15 12:16:54;;;;;;;2.60;2.20;;;39.70;27.70;;;;;;6156915;23;20975;-87
2022/05/15 12:19:25;;;;;;;3.30;2.53;;;37.90;28.80;;;;;;6157534;23;20438;-87
2022/05/15 12:21:55;;;;;;;3.30;1.67;;;37.00;28.80;;;;;;6159247;23;20391;-86
2022/05/15 12:24:30;;;;;;;3.90;2.13;;;37.90;29.20;;;;;;6157836;23;20414;-87
2022/05/15 12:27:23;;;;;;;3.40;2.50;;;36.40;29.00;;;;;;6157158;23;20410;-87
2022/05/15 12:30:03;;;;;;;3.60;2.10;;;37.30;29.70;;;;;;6157194;23;20395;-87
2022/05/15 12:32:35;;;;;;;5.17;4.63;;;37.70;29.20;;;;;;6158207;23;20395;-87
2022/05/15 12:35:06;;;;;;;5.40;2.73;;;37.40;29.50;;;;;;6156830;23;20932;-87
2022/05/15 12:37:52;;;;;;;2.93;2.13;;;38.10;29.80;;;;;;6157568;23;20430;-86
2022/05/15 12:40:26;;;;;;;3.57;2.70;;;38.40;28.70;;;;;;6166602;23;20387;-87
2022/05/15 12:42:54;;;;;;;3.63;2.30;;;38.20;29.20;;;;;;6183745;23;20467;-86
2022/05/15 12:45:22;;;;;;;2.10;1.90;;;38.30;28.30;;;;;;6181288;23;20462;-87
2022/05/15 12:48:01;;;;;;;2.27;2.07;;;39.10;28.20;;;;;;6157643;23;20430;-87
2022/05/15 12:50:28;;;;;;;7.20;2.27;;;38.60;28.00;;;;;;6157713;23;20399;-87
2022/05/15 12:52:56;;;;;;;4.70;2.20;;;38.30;27.60;;;;;;6165604;23;20421;-86
2022/05/15 12:55:26;;;;;;;2.50;2.00;;;38.90;27.40;;;;;;6181835;23;20397;-87
2022/05/15 12:57:55;;;;;;;4.60;2.47;;;40.00;27.30;;;;;;6180556;23;20470;-85
2022/05/15 13:00:30;;;;;;;4.97;3.30;;;41.00;26.70;;;;;;6180802;23;20399;-85
2022/05/15 13:03:00;;;;;;;3.20;2.80;;;40.70;26.20;;;;;;6162849;23;20394;-84
2022/05/15 13:05:29;;;;;;;3.23;2.00;;;40.80;26.50;;;;;;6160205;23;20410;-87
2022/05/15 13:07:58;;;;;;;5.20;2.43;;;40.10;27.00;;;;;;6172264;23;20423;-87
2022/05/15 13:10:27;;;;;;;2.90;2.47;;;40.10;27.10;;;;;;6180701;23;20414;-86
2022/05/15 13:12:57;;;;;;;4.63;3.73;;;38.60;27.50;;;;;;6175968;23;20466;-85
2022/05/15 13:15:25;;;;;;;4.10;2.33;;;37.70;28.80;;;;;;6181087;23;20453;-86
2022/05/15 13:17:54;;;;;;;5.70;5.20;;;38.40;27.60;;;;;;6184279;23;20434;-85
2022/05/15 13:20:23;;;;;;;2.50;2.27;;;38.80;28.30;;;;;;6182564;23;20395;-86
2022/05/15 13:22:52;;;;;;;6.33;2.30;;;40.00;27.10;;;;;;6184608;23;20467;-85
2022/05/15 13:25:33;;;;;;;3.27;2.30;;;40.20;27.40;;;;;;6180569;23;20438;-85
2022/05/15 13:28:02;;;;;;;2.90;2.00;;;40.70;26.10;;;;;;6164067;23;20431;-86
2022/05/15 13:30:33;;;;;;;4.90;2.30;;;39.10;25.30;;;;;;6160374;23;20406;-86
2022/05/15 13:33:02;;;;;;;4.70;2.40;;;38.80;26.70;;;;;;6159871;23;20478;-86
2022/05/15 13:35:33;;;;;;;2.90;2.17;;;39.10;25.80;;;;;;6158974;23;20410;-85
2022/05/15 13:38:14;;;;;;;2.40;1.90;;;39.20;26.20;;;;;;6160269;23;20787;-86
2022/05/15 13:43:35;;;;;;;4.30;2.10;;;39.80;26.60;;;;;;6180457;23;20414;-86
2022/05/15 13:46:04;;;;;;;4.40;2.33;;;38.20;27.20;;;;;;6182844;23;20398;-86
2022/05/15 13:48:51;;;;;;;2.87;2.23;;;36.50;28.30;;;;;;6170685;23;20943;-85
2022/05/15 13:51:31;;;;;;;2.57;1.73;;;36.90;28.90;;;;;;6160076;23;20391;-85